createdAt,value
2022-10-05T00:00:59.159Z,3.47
2022-10-05T00:03:33.391Z,3.13
2022-10-05T00:06:00.207Z,3.80
2022-10-05T00:08:32.670Z,2.90
2022-10-05T00:10:59.283Z,3.58
2022-10-05T00:13:28.468Z,3.38
2022-10-05T00:16:19.821Z,2.53
2022-10-05T00:18:53.020Z,2.97
2022-10-05T00:21:28.927Z,3.13
2022-10-05T00:23:57.860Z,2.85
2022-10-05T00:26:32.815Z,3.38
2022-10-05T00:29:01.691Z,3.75
2022-10-05T00:31:32.672Z,3.10
2022-10-05T00:33:59.030Z,2.83
2022-10-05T00:36:26.192Z,2.78
2022-10-05T00:38:53.694Z,3.20
2022-10-05T00:41:46.866Z,2.80
2022-10-05T00:44:28.571Z,2.92
2022-10-05T00:47:12.762Z,2.87
2022-10-05T00:49:57.380Z,2.58
2022-10-05T00:52:54.595Z,2.80
2022-10-05T00:56:07.287Z,3.13
2022-10-05T00:59:02.556Z,2.83
2022-10-05T01:01:42.570Z,2.47
2022-10-05T01:05:20.416Z,2.85
2022-10-05T01:08:05.941Z,2.63
2022-10-05T01:10:55.590Z,2.83
2022-10-05T01:13:39.827Z,2.50
2022-10-05T01:16:20.136Z,2.97
2022-10-05T01:18:52.475Z,2.70
2022-10-05T01:21:25.331Z,3.10
2022-10-05T01:24:15.224Z,3.50
2022-10-05T01:27:14.911Z,3.53
2022-10-05T01:29:54.686Z,3.70
2022-10-05T01:32:32.906Z,2.97
2022-10-05T01:35:18.226Z,3.25
2022-10-05T01:37:56.898Z,3.15
2022-10-05T01:40:53.056Z,3.92
2022-10-05T01:43:54.860Z,3.30
2022-10-05T01:46:36.358Z,3.60
2022-10-05T01:49:21.647Z,4.05
2022-10-05T01:52:12.971Z,4.05
2022-10-05T01:55:07.813Z,4.65
2022-10-05T01:57:53.893Z,4.23
2022-10-05T02:00:20.960Z,4.13
2022-10-05T02:02:52.459Z,4.15
2022-10-05T02:05:26.432Z,3.70
2022-10-05T02:07:58.630Z,4.47
2022-10-05T02:10:30.887Z,4.27
2022-10-05T02:13:03.300Z,4.25
2022-10-05T02:15:42.152Z,4.45
2022-10-05T02:18:17.321Z,4.10
2022-10-05T02:20:45.568Z,4.55
2022-10-05T02:23:20.780Z,5.07
2022-10-05T02:25:50.945Z,4.30
2022-10-05T02:28:24.909Z,4.18
2022-10-05T02:31:09.739Z,4.53
2022-10-05T02:33:36.765Z,4.97
2022-10-05T02:36:19.816Z,4.53
2022-10-05T02:39:06.536Z,4.55
2022-10-05T02:41:41.231Z,4.50
2022-10-05T02:44:30.254Z,4.70
2022-10-05T02:47:11.684Z,4.75
2022-10-05T02:49:49.181Z,4.97
2022-10-05T02:52:43.085Z,3.80
2022-10-05T02:55:17.340Z,4.68
2022-10-05T02:58:04.545Z,4.88
2022-10-05T03:00:35.854Z,4.28
2022-10-05T03:03:10.347Z,3.03
2022-10-05T03:05:52.983Z,4.15
2022-10-05T03:08:27.722Z,4.72
2022-10-05T03:11:08.583Z,4.30
2022-10-05T03:14:04.801Z,4.68
2022-10-05T03:16:31.260Z,4.30
2022-10-05T03:19:10.214Z,4.65
2022-10-05T03:21:57.685Z,4.35
2022-10-05T03:24:32.561Z,3.95
2022-10-05T03:27:32.368Z,4.53
2022-10-05T03:30:18.359Z,4.07
2022-10-05T03:33:00.277Z,3.90
2022-10-05T03:35:45.101Z,4.00
2022-10-05T03:38:23.028Z,4.40
2022-10-05T03:41:04.807Z,4.30
2022-10-05T03:43:52.775Z,3.40
2022-10-05T03:46:54.443Z,3.40
2022-10-05T03:50:03.988Z,3.47
2022-10-05T03:52:38.110Z,3.63
2022-10-05T03:55:31.147Z,3.95
2022-10-05T03:58:02.992Z,3.17
2022-10-05T04:00:31.968Z,3.55
2022-10-05T04:03:15.856Z,3.50
2022-10-05T04:06:04.218Z,3.20
2022-10-05T04:08:48.179Z,3.10
2022-10-05T04:11:21.317Z,2.73
2022-10-05T04:13:50.847Z,3.80
2022-10-05T04:16:21.245Z,2.92
2022-10-05T04:19:00.156Z,3.60
2022-10-05T04:21:32.637Z,3.67
2022-10-05T04:24:16.199Z,2.87
2022-10-05T04:26:53.322Z,2.70
2022-10-05T04:29:29.861Z,2.95
2022-10-05T04:32:02.429Z,3.65
2022-10-05T04:34:54.309Z,3.03
2022-10-05T04:37:46.471Z,2.70
2022-10-05T04:40:31.428Z,2.83
2022-10-05T04:43:15.264Z,2.60
2022-10-05T04:46:07.043Z,2.95
2022-10-05T04:49:11.359Z,3.05
2022-10-05T04:51:56.039Z,2.70
2022-10-05T04:54:42.301Z,2.75
2022-10-05T04:57:41.611Z,2.92
2022-10-05T05:00:25.526Z,3.03
2022-10-05T05:03:01.185Z,3.30
2022-10-05T05:06:12.157Z,2.77
2022-10-05T05:08:35.921Z,2.88
2022-10-05T05:11:27.167Z,2.70
2022-10-05T05:14:31.864Z,2.35
2022-10-05T05:17:13.307Z,2.25
2022-10-05T05:19:55.119Z,2.33
2022-10-05T05:22:50.155Z,1.52
2022-10-05T05:25:42.889Z,1.67
2022-10-05T05:28:40.486Z,1.70
2022-10-05T05:31:16.015Z,1.58
2022-10-05T05:33:56.356Z,1.20
2022-10-05T05:36:35.925Z,1.30
2022-10-05T05:39:08.436Z,1.40
2022-10-05T05:41:44.814Z,1.63
2022-10-05T05:44:23.636Z,2.00
2022-10-05T05:47:04.905Z,1.80
2022-10-05T05:49:54.143Z,1.60
2022-10-05T05:52:28.581Z,1.92
2022-10-05T05:55:00.975Z,1.67
2022-10-05T05:57:52.583Z,2.05
2022-10-05T06:00:23.844Z,1.73
2022-10-05T06:02:57.882Z,2.10
2022-10-05T06:05:31.930Z,2.50
2022-10-05T06:08:03.172Z,2.33
2022-10-05T06:10:41.372Z,2.65
2022-10-05T06:13:43.622Z,2.13
2022-10-05T06:16:31.352Z,2.03
2022-10-05T06:19:03.851Z,2.33
2022-10-05T06:21:38.265Z,2.08
2022-10-05T06:24:25.626Z,2.28
2022-10-05T06:27:25.844Z,2.13
2022-10-05T06:29:58.291Z,2.40
2022-10-05T06:32:36.030Z,2.78
2022-10-05T06:35:41.280Z,2.05
2022-10-05T06:38:45.052Z,2.15
2022-10-05T06:41:23.395Z,2.40
2022-10-05T06:44:08.031Z,2.40
2022-10-05T06:46:49.653Z,2.97
2022-10-05T06:49:29.316Z,3.00
2022-10-05T06:52:03.646Z,2.80
2022-10-05T06:54:54.272Z,2.57
2022-10-05T06:57:49.146Z,2.20
2022-10-05T07:00:24.913Z,2.53
2022-10-05T07:03:28.798Z,2.33
2022-10-05T07:06:03.257Z,2.60
2022-10-05T07:08:34.684Z,2.03
2022-10-05T07:11:22.956Z,2.10
2022-10-05T07:14:01.553Z,2.10
2022-10-05T07:16:31.093Z,2.13
2022-10-05T07:19:31.313Z,2.78
2022-10-05T07:22:15.024Z,2.40
2022-10-05T07:24:47.874Z,2.63
2022-10-05T07:27:20.349Z,2.40
2022-10-05T07:30:01.800Z,2.60
2022-10-05T07:32:33.979Z,2.13
2022-10-05T07:36:01.663Z,2.43
2022-10-05T07:38:52.699Z,1.92
2022-10-05T07:41:26.161Z,1.75
2022-10-05T07:44:02.381Z,2.25
2022-10-05T07:46:32.219Z,2.30
2022-10-05T07:49:17.556Z,2.33
2022-10-05T07:51:59.598Z,2.55
2022-10-05T07:54:45.651Z,1.92
2022-10-05T07:57:33.371Z,1.98
2022-10-05T08:00:10.852Z,1.50
2022-10-05T08:02:52.708Z,1.90
2022-10-05T08:05:23.938Z,2.00
2022-10-05T08:07:57.854Z,1.98
2022-10-05T08:10:45.141Z,1.73
2022-10-05T08:13:34.599Z,1.88
2022-10-05T08:16:05.869Z,1.40
2022-10-05T08:18:51.248Z,1.88
2022-10-05T08:21:25.767Z,2.00
2022-10-05T08:24:16.438Z,2.05
2022-10-05T08:26:55.064Z,1.95
2022-10-05T08:29:21.578Z,1.77
2022-10-05T08:31:52.229Z,2.10
2022-10-05T08:34:24.919Z,1.73
2022-10-05T08:37:27.345Z,2.20
2022-10-05T08:40:24.552Z,1.77
2022-10-05T08:43:06.224Z,1.60
2022-10-05T08:45:54.236Z,1.90
2022-10-05T08:48:29.829Z,1.67
2022-10-05T08:51:07.828Z,1.50
2022-10-05T08:54:09.659Z,2.25
2022-10-05T08:56:53.114Z,2.13
2022-10-05T08:59:57.398Z,1.67
2022-10-05T09:02:30.682Z,1.50
2022-10-05T09:05:17.443Z,1.63
2022-10-05T09:08:02.429Z,2.00
2022-10-05T09:10:32.012Z,1.93
2022-10-05T09:13:31.362Z,1.50
2022-10-05T09:16:17.641Z,2.00
2022-10-05T09:19:06.332Z,1.83
2022-10-05T09:21:43.170Z,1.30
2022-10-05T09:24:48.378Z,1.17
2022-10-05T09:27:17.944Z,1.20
2022-10-05T09:30:09.354Z,1.17
2022-10-05T09:32:59.194Z,1.48
2022-10-05T09:35:53.738Z,1.00
2022-10-05T09:38:53.745Z,1.03
2022-10-05T09:41:38.995Z,0.98
2022-10-05T09:44:33.694Z,1.40
2022-10-05T09:47:07.475Z,1.52
2022-10-05T09:49:48.371Z,1.83
2022-10-05T09:52:39.468Z,1.43
2022-10-05T09:55:33.698Z,1.60
2022-10-05T09:58:33.283Z,1.55
2022-10-05T10:01:38.145Z,1.00
2022-10-05T10:04:18.608Z,1.15
2022-10-05T10:06:59.316Z,0.80
2022-10-05T10:09:59.752Z,0.98
2022-10-05T10:13:04.279Z,1.13
2022-10-05T10:15:46.043Z,0.90
2022-10-05T10:18:43.066Z,0.88
2022-10-05T10:21:33.002Z,1.50
2022-10-05T10:24:30.772Z,1.25
2022-10-05T10:27:21.785Z,1.10
2022-10-05T10:30:00.491Z,1.13
2022-10-05T10:35:32.868Z,1.40
2022-10-05T10:38:24.036Z,1.50
2022-10-05T10:41:05.599Z,1.10
2022-10-05T10:43:51.320Z,1.30
2022-10-05T10:46:55.818Z,1.65
2022-10-05T10:49:41.864Z,1.40
2022-10-05T10:52:14.715Z,1.45
2022-10-05T10:55:18.730Z,1.67
2022-10-05T10:58:06.918Z,1.60
2022-10-05T11:00:54.481Z,1.30
2022-10-05T11:04:07.219Z,1.10
2022-10-05T11:06:39.809Z,1.40
2022-10-05T11:09:32.447Z,1.52
2022-10-05T11:12:24.642Z,1.25
2022-10-05T11:15:15.044Z,1.63
2022-10-05T11:17:54.602Z,1.80
2022-10-05T11:20:42.191Z,1.23
2022-10-05T11:23:43.203Z,1.30
2022-10-05T11:26:25.149Z,1.35
2022-10-05T11:29:21.991Z,1.92
2022-10-05T11:32:01.780Z,1.10
2022-10-05T11:35:12.313Z,1.45
2022-10-05T11:37:44.763Z,1.38
2022-10-05T11:40:49.496Z,1.75
2022-10-05T11:43:39.765Z,1.67
2022-10-05T11:46:38.727Z,1.23
2022-10-05T11:49:24.363Z,1.35
2022-10-05T11:52:08.816Z,1.70
2022-10-05T11:55:10.273Z,0.95
2022-10-05T11:57:58.919Z,1.20
2022-10-05T12:00:32.560Z,1.33
2022-10-05T12:03:09.295Z,0.82
2022-10-05T12:06:05.772Z,1.30
2022-10-05T12:08:59.409Z,1.75
2022-10-05T12:11:43.639Z,1.38
2022-10-05T12:14:22.007Z,0.87
2022-10-05T12:16:58.779Z,1.30
2022-10-05T12:19:37.825Z,0.90
2022-10-05T12:22:15.385Z,1.02
2022-10-05T12:24:44.778Z,1.67
2022-10-05T12:27:19.960Z,1.67
2022-10-05T12:30:11.040Z,1.00
2022-10-05T12:33:04.011Z,0.80
2022-10-05T12:35:56.751Z,0.90
2022-10-05T12:38:28.831Z,0.82
2022-10-05T12:41:04.346Z,1.00
2022-10-05T12:43:54.104Z,1.00
2022-10-05T12:46:23.556Z,1.38
2022-10-05T12:48:57.775Z,0.98
2022-10-05T12:51:50.993Z,1.20
2022-10-05T12:54:49.409Z,1.10
2022-10-05T13:00:19.037Z,0.93
2022-10-05T13:03:02.955Z,1.00
2022-10-05T13:05:41.169Z,1.00
2022-10-05T13:08:32.420Z,0.90
2022-10-05T13:12:10.239Z,1.02
2022-10-05T13:14:42.920Z,0.75
2022-10-05T13:17:20.988Z,0.80
2022-10-05T13:19:55.221Z,0.90
2022-10-05T13:22:27.513Z,0.80
2022-10-05T13:25:06.134Z,1.33
2022-10-05T13:27:42.403Z,1.10
2022-10-05T13:30:18.087Z,1.00
2022-10-05T13:33:00.659Z,0.95
2022-10-05T13:35:54.657Z,1.67
2022-10-05T13:38:56.444Z,0.80
2022-10-05T13:41:51.148Z,1.10
2022-10-05T13:44:39.800Z,0.98
2022-10-05T13:47:31.320Z,0.80
2022-10-05T13:50:02.063Z,0.93
2022-10-05T13:52:42.272Z,0.98
2022-10-05T13:55:20.833Z,0.80
2022-10-05T13:58:05.850Z,1.33
2022-10-05T14:00:37.366Z,1.10
2022-10-05T14:03:22.634Z,1.10
2022-10-05T14:06:01.395Z,0.90
2022-10-05T14:08:52.031Z,0.93
2022-10-05T14:11:32.591Z,0.80
2022-10-05T14:14:23.468Z,0.80
2022-10-05T14:16:51.880Z,0.80
2022-10-05T14:19:33.466Z,1.20
2022-10-05T14:22:24.518Z,1.23
2022-10-05T14:24:55.550Z,0.70
2022-10-05T14:27:23.956Z,0.60
2022-10-05T14:30:20.460Z,0.90
2022-10-05T14:33:05.347Z,0.90
2022-10-05T14:35:48.880Z,0.90
2022-10-05T14:38:29.440Z,0.90
2022-10-05T14:41:15.940Z,0.60
2022-10-05T14:43:51.282Z,0.70
2022-10-05T14:46:21.817Z,1.00
2022-10-05T14:49:11.015Z,0.75
2022-10-05T14:51:38.257Z,0.82
2022-10-05T14:54:30.339Z,0.65
2022-10-05T14:57:33.016Z,0.50
2022-10-05T15:00:08.658Z,1.00
2022-10-05T15:03:06.363Z,0.70
2022-10-05T15:05:52.272Z,1.05
2022-10-05T15:08:41.395Z,0.80
2022-10-05T15:11:32.651Z,0.50
2022-10-05T15:14:00.466Z,0.55
2022-10-05T15:16:33.088Z,0.68
2022-10-05T15:19:20.837Z,0.57
2022-10-05T15:22:13.239Z,0.60
2022-10-05T15:25:01.654Z,0.70
2022-10-05T15:27:53.882Z,0.80
2022-10-05T15:30:22.325Z,0.70
2022-10-05T15:33:11.094Z,0.60
2022-10-05T15:35:49.718Z,1.20
2022-10-05T15:38:31.774Z,1.33
2022-10-05T15:41:03.674Z,0.90
2022-10-05T15:43:58.587Z,0.80
2022-10-05T15:46:40.033Z,1.02
2022-10-05T15:49:36.842Z,0.75
2022-10-05T15:52:41.861Z,0.50
2022-10-05T15:55:21.728Z,0.70
2022-10-05T15:58:16.077Z,23.65
2022-10-05T16:00:48.492Z,2.95
2022-10-05T16:03:40.416Z,1.30
2022-10-05T16:06:33.419Z,0.90
2022-10-05T16:09:09.409Z,0.70
2022-10-05T16:11:45.159Z,1.08
2022-10-05T16:14:20.594Z,0.80
2022-10-05T16:16:59.707Z,0.65
2022-10-05T16:19:35.113Z,0.70
2022-10-05T16:22:22.149Z,0.45
2022-10-05T16:25:18.422Z,0.60
2022-10-05T16:28:09.990Z,0.60
2022-10-05T16:30:58.592Z,0.80
2022-10-05T16:33:55.084Z,0.90
2022-10-05T16:36:47.907Z,1.17
2022-10-05T16:39:44.968Z,0.73
2022-10-05T16:42:29.378Z,0.70
2022-10-05T16:45:16.159Z,0.82
2022-10-05T16:48:20.905Z,0.90
2022-10-05T16:51:27.107Z,0.63
2022-10-05T16:53:59.558Z,0.50
2022-10-05T16:56:34.118Z,0.88
2022-10-05T16:59:37.977Z,0.52
2022-10-05T17:02:07.261Z,0.40
2022-10-05T17:05:11.632Z,0.60
2022-10-05T17:07:57.001Z,0.85
2022-10-05T17:10:38.826Z,0.55
2022-10-05T17:13:11.385Z,1.65
2022-10-05T17:15:55.477Z,0.70
2022-10-05T17:18:29.297Z,1.10
2022-10-05T17:21:23.718Z,0.68
2022-10-05T17:27:52.202Z,0.85
2022-10-05T17:30:36.126Z,0.67
2022-10-05T17:33:29.694Z,0.80
2022-10-05T17:36:06.495Z,1.00
2022-10-05T17:38:36.691Z,1.00
2022-10-05T17:41:11.277Z,0.88
2022-10-05T17:43:38.523Z,1.20
2022-10-05T17:46:07.239Z,0.70
2022-10-05T17:57:25.136Z,0.80
2022-10-05T17:59:57.545Z,0.90
2022-10-05T18:06:29.692Z,0.60
2022-10-05T18:09:16.938Z,0.77
2022-10-05T18:11:45.756Z,0.90
2022-10-05T18:14:24.732Z,0.65
2022-10-05T18:17:00.199Z,0.80
2022-10-05T18:19:31.308Z,0.73
2022-10-05T18:22:16.429Z,0.90
2022-10-05T18:28:34.510Z,0.80
2022-10-05T18:31:30.866Z,0.98
2022-10-05T18:34:02.320Z,1.38
2022-10-05T18:37:07.648Z,0.90
2022-10-05T18:39:36.876Z,0.90
2022-10-05T18:42:28.180Z,0.80
2022-10-05T18:45:17.904Z,0.95
2022-10-05T18:48:17.039Z,1.23
2022-10-05T18:50:47.994Z,0.73
2022-10-05T18:53:31.308Z,0.90
2022-10-05T18:56:05.441Z,0.85
2022-10-05T18:58:50.987Z,1.30
2022-10-05T19:01:49.907Z,0.80
2022-10-05T19:04:47.489Z,1.20
2022-10-05T19:07:43.903Z,0.77
2022-10-05T19:10:28.339Z,0.77
2022-10-05T19:13:09.066Z,0.90
2022-10-05T19:16:10.085Z,0.80
2022-10-05T19:19:01.015Z,0.80
2022-10-05T19:21:41.312Z,1.03
2022-10-05T19:24:47.711Z,1.08
2022-10-05T19:27:54.544Z,1.27
2022-10-05T19:30:25.116Z,0.90
2022-10-05T19:33:04.915Z,1.15
2022-10-05T19:35:49.682Z,0.87
2022-10-05T19:38:25.997Z,1.08
2022-10-05T19:41:04.512Z,1.20
2022-10-05T19:43:36.940Z,1.20
2022-10-05T19:46:30.777Z,1.40
2022-10-05T19:48:57.687Z,0.30
2022-10-05T19:51:25.318Z,0.30
2022-10-05T19:53:55.825Z,0.30
2022-10-05T19:56:25.330Z,0.30
2022-10-05T19:58:56.546Z,0.30
2022-10-05T20:01:30.930Z,0.40
2022-10-05T20:03:58.085Z,0.30
2022-10-05T20:06:31.481Z,0.20
2022-10-05T20:09:01.459Z,0.20
2022-10-05T20:11:28.384Z,0.22
2022-10-05T20:13:59.600Z,0.20
2022-10-05T20:16:44.919Z,0.20
2022-10-05T20:19:52.025Z,0.22
2022-10-05T20:22:24.432Z,0.20
2022-10-05T20:24:52.758Z,0.47
2022-10-05T20:27:48.469Z,0.17
2022-10-05T20:30:18.411Z,0.50
2022-10-05T20:32:52.245Z,0.20
2022-10-05T20:35:22.228Z,0.20
2022-10-05T20:37:49.904Z,0.20
2022-10-05T20:40:18.678Z,0.10
2022-10-05T20:42:45.207Z,0.10
2022-10-05T20:45:12.954Z,0.25
2022-10-05T20:47:40.409Z,0.30
2022-10-05T20:50:09.078Z,0.20
2022-10-05T20:52:39.570Z,0.30
2022-10-05T20:55:08.894Z,0.30
2022-10-05T20:57:38.427Z,0.30
2022-10-05T21:00:05.713Z,0.20
2022-10-05T21:02:32.061Z,0.20
2022-10-05T21:04:58.456Z,0.20
2022-10-05T21:07:25.688Z,0.30
2022-10-05T21:09:52.116Z,0.43
2022-10-05T21:12:18.607Z,0.40
2022-10-05T21:14:45.329Z,0.20
2022-10-05T21:17:12.433Z,0.10
2022-10-05T21:19:39.407Z,0.10
2022-10-05T21:22:07.731Z,0.10
2022-10-05T21:24:40.255Z,0.20
2022-10-05T21:27:06.989Z,0.25
2022-10-05T21:29:35.254Z,0.20
2022-10-05T21:32:01.798Z,0.20
2022-10-05T21:34:28.663Z,0.20
2022-10-05T21:36:55.047Z,0.10
2022-10-05T21:39:21.413Z,0.10
2022-10-05T21:41:49.610Z,0.20
2022-10-05T21:44:16.363Z,0.10
2022-10-05T21:46:42.848Z,0.28
2022-10-05T21:49:09.794Z,0.10
2022-10-05T21:51:36.732Z,0.20
2022-10-05T21:54:08.627Z,0.10
2022-10-05T21:56:38.357Z,0.10
2022-10-05T21:59:07.668Z,0.20
2022-10-05T22:01:35.877Z,0.35
2022-10-05T22:04:06.756Z,0.10
2022-10-05T22:06:35.144Z,0.10
2022-10-05T22:09:02.151Z,0.10
2022-10-05T22:11:29.031Z,0.10
2022-10-05T22:14:02.055Z,0.20
2022-10-05T22:16:31.716Z,0.10
2022-10-05T22:18:59.040Z,0.10
2022-10-05T22:21:25.582Z,0.17
2022-10-05T22:23:51.973Z,0.28
2022-10-05T22:26:21.203Z,0.30
2022-10-05T22:28:48.435Z,0.10
2022-10-05T22:31:15.780Z,0.30
2022-10-05T22:33:42.536Z,0.20
2022-10-05T22:36:09.840Z,0.35
2022-10-05T22:38:36.812Z,0.22
2022-10-05T22:41:03.757Z,0.10
2022-10-05T22:43:30.120Z,0.10
2022-10-05T22:45:56.586Z,0.30
2022-10-05T22:48:23.097Z,0.20
2022-10-05T22:50:49.465Z,0.28
2022-10-05T22:53:15.963Z,0.20
2022-10-05T22:55:42.329Z,0.23
2022-10-05T22:58:08.739Z,0.47
2022-10-05T23:00:56.894Z,0.30
2022-10-05T23:03:21.479Z,0.55
2022-10-05T23:05:47.823Z,0.50
2022-10-05T23:08:14.200Z,0.30
2022-10-05T23:10:40.559Z,0.20
2022-10-05T23:13:07.311Z,0.25
2022-10-05T23:15:34.444Z,0.40
2022-10-05T23:18:00.796Z,0.38
2022-10-05T23:20:27.154Z,0.40
2022-10-05T23:22:53.727Z,0.25
2022-10-05T23:25:22.169Z,0.22
2022-10-05T23:27:48.678Z,0.30
2022-10-05T23:30:15.136Z,0.30
2022-10-05T23:32:43.007Z,1.00
2022-10-05T23:35:11.593Z,0.63
2022-10-05T23:37:43.503Z,0.47
2022-10-05T23:40:12.243Z,0.40
2022-10-05T23:42:41.999Z,0.63
2022-10-05T23:45:10.383Z,0.70
2022-10-05T23:47:37.022Z,0.68
2022-10-05T23:50:05.265Z,0.20
2022-10-05T23:52:31.647Z,0.30
2022-10-05T23:54:57.998Z,0.40
2022-10-05T23:57:24.385Z,0.30
2022-10-05T23:59:50.780Z,0.60
